首页
METAR-TAF:

METAR-TAF

机场 :

St. Augustine Airport

聖奧古斯丁, 佛罗里达州, 美国

纬度: 29-57-33N, 经度: 081-20-23W, 海拔: 3米

当前天气观测

该预报发布于42分钟前的05:56 UTC
温度 24°C
湿度 83%
气压 1019 hPa
能見度: 16.1公里
少量云层高于9500英尺

METAR: KSGJ 270556Z AUTO 10SM FEW095 24/21 A3008 RMK AO2 SLP185 T02440211 10272 20244 58002

时间: 02:38 (06:38 UTC)

预报

该预报发布于25分钟前的06:13 UTC
预报有效从27日的 06点(UTC)到 28日的 06点(UTC)
风速5节,风向南转西南
能見度: 10公里
少量云层高于8000英尺
从 27日的 0700点(UTC)
风速9节,风向南转西南
能見度: 10公里
多云层高于8000英尺
附近有阵雨
从 27日的 1000点(UTC)
风速6节,风向南转西南
能見度: 10公里
散云层高于8000英尺

TAF: KSGJ 270613Z 2706/2806 21005KT P6SM FEW080 FM270700 20009KT P6SM VCSH BKN080 FM271000 20006KT P6SM SCT080

超过4000个机场的气象观测和天气预报(METAR&TAF报告)。

可查询的气象台以黄色和红色小点在地图上表示。

将鼠标移到小点上方,可查看气象台名称。

然后点击查看天气观测和预报。

如需切换地图:点击带黑十字的绿色按钮放大地图;点击带横线的绿色按钮缩小地图;或者点击绿色箭头查看邻近地区的地图。


METAR-TAF: